Time;durP1;ratioP1;P1;durP2;ratioP2;P2;SDS_P1;SDS_P2;PMS_P1;PMS_P2;Temp;Humidity;BMP_temperature;BMP_pressure;BME280_temperature;BME280_humidity;BME280_pressure;Samples;Min_cycle;Max_cycle;Signal;HPM_P1;HPM_P2
2021/11/28 00:01:53;;;;;;;81.80;36.33;;;;;;;1.90;100.00;98797.26;4984558;59;1139084;-81
2021/11/28 00:07:04;;;;;;;85.97;42.77;;;;;;;1.93;100.00;98787.45;5031865;58;1139015;-86
2021/11/28 00:12:24;;;;;;;79.33;37.67;;;;;;;1.93;100.00;98782.72;5048603;58;1139301;-82
2021/11/28 00:17:14;;;;;;;75.83;35.03;;;;;;;1.92;100.00;98773.22;5085748;57;1139276;-83
2021/11/28 00:22:20;;;;;;;75.23;35.23;;;;;;;1.97;100.00;98771.14;5143009;57;1138981;-85
2021/11/28 00:27:26;;;;;;;74.73;36.63;;;;;;;2.02;100.00;98772.93;5142933;57;1138986;-83
2021/11/28 00:32:32;;;;;;;93.67;43.17;;;;;;;2.03;100.00;98770.22;5142577;57;1138942;-83
2021/11/28 00:37:38;;;;;;;82.37;37.97;;;;;;;2.03;100.00;98777.20;5142660;57;1138983;-82
2021/11/28 00:42:44;;;;;;;71.63;33.60;;;;;;;2.03;100.00;98776.73;5142692;57;1138965;-83
2021/11/28 00:47:50;;;;;;;76.20;35.67;;;;;;;2.04;100.00;98767.98;5154184;57;1139509;-84
2021/11/28 00:52:56;;;;;;;75.80;35.20;;;;;;;2.05;100.00;98745.34;5154620;57;1138964;-84
2021/11/28 00:58:02;;;;;;;86.20;36.07;;;;;;;2.02;100.00;98736.42;5154499;57;1139002;-81
2021/11/28 01:03:09;;;;;;;73.10;31.43;;;;;;;1.99;100.00;98740.55;5154490;57;1138946;-82
2021/11/28 01:08:15;;;;;;;75.43;35.13;;;;;;;2.00;100.00;98736.53;5154469;57;1138895;-82
2021/11/28 01:13:21;;;;;;;84.80;36.47;;;;;;;2.04;100.00;98739.77;5154387;57;1139452;-83
2021/11/28 01:18:28;;;;;;;84.17;35.97;;;;;;;2.04;100.00;98757.55;5104052;57;1138914;-83
2021/11/28 01:23:34;;;;;;;88.30;42.13;;;;;;;2.00;100.00;98760.00;5070789;58;1139261;-82
2021/11/28 01:28:40;;;;;;;75.57;35.90;;;;;;;1.98;100.00;98760.61;5070791;58;1136979;-83
2021/11/28 01:33:47;;;;;;;75.20;33.07;;;;;;;1.99;100.00;98745.30;5070716;58;1136942;-86
2021/11/28 01:38:54;;;;;;;75.07;33.47;;;;;;;2.01;100.00;98763.44;5062580;58;1136996;-81
2021/11/28 01:44:00;;;;;;;75.80;34.07;;;;;;;1.95;100.00;98765.19;5119098;57;1136848;-81
2021/11/28 01:49:08;;;;;;;89.43;40.73;;;;;;;1.88;100.00;98771.30;5130021;57;1136974;-83
2021/11/28 01:54:14;;;;;;;69.37;32.40;;;;;;;1.88;100.00;98780.89;5129706;57;1137449;-81
2021/11/28 01:59:21;;;;;;;87.03;39.27;;;;;;;1.90;100.00;98801.17;5129711;57;1137127;-82
2021/11/28 02:04:28;;;;;;;68.97;31.40;;;;;;;1.86;100.00;98800.54;5129807;57;1136953;-84
2021/11/28 02:09:35;;;;;;;69.33;33.33;;;;;;;1.81;100.00;98788.31;5129687;57;1137283;-82
2021/11/28 02:14:40;;;;;;;115.87;57.23;;;;;;;1.78;100.00;98785.92;5129650;57;1137008;-85
2021/11/28 02:19:46;;;;;;;311.10;130.60;;;;;;;1.80;100.00;98789.73;5076075;57;1139015;-85
2021/11/28 02:24:52;;;;;;;87.00;44.77;;;;;;;1.81;100.00;98813.55;5067179;57;1141440;-81
2021/11/28 02:30:00;;;;;;;59.70;27.77;;;;;;;1.77;100.00;98810.31;5067307;58;1137259;-83
2021/11/28 02:35:08;;;;;;;57.23;28.10;;;;;;;1.74;100.00;98778.77;5067231;57;1137007;-84
2021/11/28 02:40:18;;;;;;;56.50;27.50;;;;;;;1.71;100.00;98788.10;5067358;58;1136851;-85
2021/11/28 02:45:27;;;;;;;59.60;30.43;;;;;;;1.75;100.00;98782.22;5061877;58;1137288;-84
2021/11/28 02:50:34;;;;;;;61.07;28.80;;;;;;;1.80;100.00;98776.69;5067372;57;1134809;-81
2021/11/28 02:55:49;;;;;;;61.07;29.07;;;;;;;1.83;100.00;98772.11;5067734;58;1139153;-81
2021/11/28 03:01:05;;;;;;;53.73;26.80;;;;;;;1.82;100.00;98767.83;5072198;57;1138986;-82
2021/11/28 03:06:11;;;;;;;57.43;28.93;;;;;;;1.88;100.00;98771.30;5132169;57;1139136;-84
2021/11/28 03:11:17;;;;;;;66.00;30.70;;;;;;;1.90;100.00;98761.59;4986062;58;1139277;-84
2021/11/28 03:16:26;;;;;;;65.00;28.63;;;;;;;1.85;100.00;98768.06;4882968;59;1139217;-82
2021/11/28 03:21:34;;;;;;;53.10;27.70;;;;;;;1.79;100.00;98767.20;4994754;58;1139103;-83
2021/11/28 03:26:43;;;;;;;60.93;27.10;;;;;;;1.79;100.00;98763.30;5029881;58;1139634;-84
2021/11/28 03:31:53;;;;;;;63.90;27.00;;;;;;;1.75;100.00;98779.14;5028592;58;1139200;-80
2021/11/28 03:37:14;;;;;;;52.80;25.33;;;;;;;1.63;100.00;98770.88;5027996;58;1139378;-83
2021/11/28 03:42:20;;;;;;;62.10;25.57;;;;;;;1.53;100.00;98777.63;5028680;58;1139068;-83
2021/11/28 03:47:28;;;;;;;144.60;64.77;;;;;;;1.55;100.00;98786.18;5032626;58;1138958;-85
2021/11/28 03:52:35;;;;;;;57.37;26.30;;;;;;;1.58;100.00;98772.95;5040010;58;1141286;-82
2021/11/28 03:57:41;;;;;;;51.60;25.00;;;;;;;1.51;100.00;98765.67;5040404;58;1139015;-82
2021/11/28 04:02:49;;;;;;;49.97;24.40;;;;;;;1.44;100.00;98756.60;5040462;58;1139314;-82
2021/11/28 04:07:57;;;;;;;49.43;24.93;;;;;;;1.38;100.00;98750.03;5039793;58;1139259;-82
2021/11/28 04:13:04;;;;;;;50.83;25.20;;;;;;;1.29;100.00;98755.41;5039903;58;1139287;-85
2021/11/28 04:18:09;;;;;;;53.73;26.73;;;;;;;1.24;100.00;98758.78;5047742;57;1139017;-83
2021/11/28 04:23:16;;;;;;;50.73;25.13;;;;;;;1.23;100.00;98766.69;5041219;57;1139051;-82
2021/11/28 04:28:21;;;;;;;48.53;23.77;;;;;;;1.19;100.00;98774.37;5041485;58;1138937;-82
2021/11/28 04:33:27;;;;;;;43.03;20.67;;;;;;;1.13;100.00;98772.16;5062967;57;1139002;-86
2021/11/28 04:38:34;;;;;;;48.77;24.47;;;;;;;1.10;100.00;98779.70;5139190;56;1139480;-81
2021/11/28 04:43:40;;;;;;;47.93;26.00;;;;;;;1.01;100.00;98778.56;5153474;57;1139413;-84
2021/11/28 04:48:46;;;;;;;62.77;27.40;;;;;;;1.00;100.00;98781.27;5107407;57;1139071;-80
2021/11/28 04:53:53;;;;;;;56.83;27.37;;;;;;;1.00;100.00;98776.05;5076347;57;1139217;-83
2021/11/28 04:59:00;;;;;;;47.43;22.97;;;;;;;1.05;100.00;98786.54;5061007;57;1139244;-80
2021/11/28 05:04:08;;;;;;;53.27;25.90;;;;;;;1.10;100.00;98790.12;5069329;57;1139067;-82
2021/11/28 05:09:16;;;;;;;68.63;31.23;;;;;;;1.17;100.00;98795.77;5074826;57;1139317;-81
2021/11/28 05:14:22;;;;;;;66.57;26.33;;;;;;;1.20;100.00;98803.38;5083393;57;1139218;-84
2021/11/28 05:19:27;;;;;;;55.43;25.43;;;;;;;1.26;100.00;98805.09;5064110;57;1136970;-83
2021/11/28 05:24:50;;;;;;;58.00;27.77;;;;;;;1.28;100.00;98816.70;5076551;57;1136909;-83
2021/11/28 05:29:56;;;;;;;53.78;26.65;;;;;;;1.24;100.00;98819.14;5077616;57;1136963;-85
2021/11/28 05:35:03;;;;;;;69.10;27.87;;;;;;;1.29;100.00;98815.77;5095150;57;1137448;-83
2021/11/28 05:40:27;;;;;;;111.30;45.90;;;;;;;1.35;100.00;98817.52;5122330;57;1137259;-85
2021/11/28 05:45:35;;;;;;;124.37;53.37;;;;;;;1.38;100.00;98823.79;5100911;57;1139365;-84
2021/11/28 05:50:58;;;;;;;55.15;24.37;;;;;;;1.36;100.00;98819.18;4961755;59;1139036;-82
2021/11/28 05:56:04;;;;;;;43.60;22.27;;;;;;;1.35;100.00;98816.67;4972357;59;1134892;-82
2021/11/28 06:01:10;;;;;;;46.53;23.30;;;;;;;1.28;100.00;98808.42;4971922;59;1134899;-82
2021/11/28 06:06:17;;;;;;;37.80;20.12;;;;;;;1.14;100.00;98828.50;4988849;59;1139349;-84
2021/11/28 06:11:41;;;;;;;40.83;22.30;;;;;;;0.99;100.00;98848.10;5048238;58;1138725;-85
2021/11/28 06:16:47;;;;;;;71.50;32.03;;;;;;;0.92;100.00;98846.81;4972692;59;1139422;-85
2021/11/28 06:22:01;;;;;;;70.17;31.23;;;;;;;0.96;100.00;98854.80;4959940;59;1139226;-85
2021/11/28 06:27:09;;;;;;;65.13;30.23;;;;;;;1.00;100.00;98863.25;5221815;56;1139244;-84
2021/11/28 06:32:16;;;;;;;68.67;31.63;;;;;;;0.99;100.00;98859.81;5223939;56;1139043;-82
2021/11/28 06:37:40;;;;;;;51.93;26.00;;;;;;;0.99;100.00;98863.72;5223615;56;1139009;-85
2021/11/28 06:43:04;;;;;;;70.07;34.50;;;;;;;1.04;100.00;98868.17;5224068;56;1139050;-82
2021/11/28 06:48:10;;;;;;;43.90;23.80;;;;;;;1.10;100.00;98864.31;5223704;56;1138991;-82
2021/11/28 06:53:18;;;;;;;53.97;27.13;;;;;;;1.12;100.00;98862.45;5210740;56;1139034;-83
2021/11/28 06:58:36;;;;;;;72.97;32.93;;;;;;;1.10;100.00;98871.29;5168285;56;1139061;-83
2021/11/28 07:03:42;;;;;;;98.57;42.67;;;;;;;1.05;100.00;98867.70;5211584;56;1139242;-82
2021/11/28 07:08:53;;;;;;;84.07;43.40;;;;;;;1.03;100.00;98871.70;5211118;56;1139156;-85
2021/11/28 07:13:58;;;;;;;70.55;35.03;;;;;;;0.99;100.00;98885.84;5211338;56;1139028;-84
2021/11/28 07:19:04;;;;;;;48.50;25.23;;;;;;;0.88;100.00;98893.52;5211220;56;1138991;-82
2021/11/28 07:24:14;;;;;;;46.80;23.83;;;;;;;0.85;100.00;98896.78;5165773;56;1139032;-84
2021/11/28 07:29:21;;;;;;;51.90;24.13;;;;;;;0.89;100.00;98893.05;5210418;56;1139032;-84
2021/11/28 07:34:27;;;;;;;85.33;33.73;;;;;;;0.96;100.00;98878.23;5209773;56;1139067;-83
2021/11/28 07:39:38;;;;;;;73.93;29.13;;;;;;;0.98;100.00;98876.37;5210245;56;1139012;-84
2021/11/28 07:44:45;;;;;;;50.17;23.60;;;;;;;1.00;100.00;98882.78;5210744;56;1139199;-84
2021/11/28 07:50:10;;;;;;;44.73;24.17;;;;;;;1.06;100.00;98882.39;5197698;56;1136991;-85
2021/11/28 07:55:18;;;;;;;57.00;26.83;;;;;;;1.10;100.00;98888.21;5134632;56;1136862;-82
2021/11/28 08:00:36;;;;;;;71.20;32.90;;;;;;;1.12;100.00;98884.58;5130171;56;1137385;-81
2021/11/28 08:05:58;;;;;;;68.27;32.40;;;;;;;1.09;100.00;98886.54;5122138;56;1137060;-82
2021/11/28 08:11:03;;;;;;;64.93;35.87;;;;;;;1.11;100.00;98879.47;5094793;56;1136994;-83
2021/11/28 08:16:09;;;;;;;59.05;30.02;;;;;;;1.21;100.00;98884.00;5104390;56;1136970;-81
2021/11/28 08:21:14;;;;;;;55.13;26.40;;;;;;;1.25;100.00;98877.62;5118201;57;1136987;-81
2021/11/28 08:26:20;;;;;;;48.43;23.13;;;;;;;1.26;100.00;98888.88;5056256;57;1136994;-80
2021/11/28 08:31:26;;;;;;;61.97;32.53;;;;;;;1.30;100.00;98892.96;5046405;58;1137162;-81
2021/11/28 08:36:49;;;;;;;54.07;28.37;;;;;;;1.30;100.00;98912.50;5046580;57;1139315;-80
2021/11/28 08:41:55;;;;;;;48.02;24.52;;;;;;;1.25;100.00;98919.30;5128226;56;1139007;-82
2021/11/28 08:47:01;;;;;;;45.30;22.97;;;;;;;1.27;100.00;98924.41;5135292;57;1139006;-79
2021/11/28 08:52:08;;;;;;;192.20;78.00;;;;;;;1.36;100.00;98925.97;5155536;56;1138989;-80
2021/11/28 08:57:13;;;;;;;182.07;73.28;;;;;;;1.36;100.00;98910.80;5181510;56;1141073;-79
2021/11/28 09:02:19;;;;;;;58.67;28.37;;;;;;;1.36;100.00;98910.80;5191140;56;1141173;-76
2021/11/28 09:07:25;;;;;;;49.67;25.73;;;;;;;1.46;100.00;98924.88;5150643;57;1139039;-80
2021/11/28 09:12:30;;;;;;;82.03;43.07;;;;;;;1.53;100.00;98914.41;5148273;57;1139074;-81
2021/11/28 09:17:38;;;;;;;59.90;30.60;;;;;;;1.63;100.00;98918.09;5142284;57;1139137;-81
2021/11/28 09:27:52;;;;;;;134.47;50.37;;;;;;;1.67;100.00;98901.33;5066284;58;1139054;-81
2021/11/28 09:33:01;;;;;;;94.45;41.40;;;;;;;1.73;100.00;98894.84;5145759;57;1141107;-79
2021/11/28 09:38:07;;;;;;;101.83;47.13;;;;;;;1.83;100.00;98890.70;5153343;57;1139000;-79
2021/11/28 09:43:16;;;;;;;115.40;57.40;;;;;;;1.90;100.00;98887.19;5118727;57;1141177;-77
2021/11/28 09:48:25;;;;;;;94.30;44.47;;;;;;;1.94;100.00;98877.77;5065077;57;1141023;-82
2021/11/28 09:53:34;;;;;;;100.53;47.60;;;;;;;1.92;100.00;98873.12;5133850;56;1139048;-80
2021/11/28 09:58:41;;;;;;;54.33;31.10;;;;;;;1.88;100.00;98859.92;5060834;58;1141123;-80
2021/11/28 10:03:47;;;;;;;100.83;49.13;;;;;;;1.84;100.00;98875.86;5060975;58;1139105;-80
2021/11/28 10:08:53;;;;;;;98.20;38.63;;;;;;;1.86;100.00;98894.84;5060699;58;1141126;-79
2021/11/28 10:13:58;;;;;;;55.00;27.77;;;;;;;1.87;100.00;98893.91;5060930;58;1139036;-81
2021/11/28 10:19:06;;;;;;;51.13;26.00;;;;;;;1.87;100.00;98889.53;5120892;57;1139034;-79
2021/11/28 10:24:19;;;;;;;58.43;28.53;;;;;;;1.88;100.00;98876.03;5144091;57;1138430;-80
2021/11/28 10:29:30;;;;;;;99.70;38.50;;;;;;;1.88;100.00;98871.66;5144859;57;1139103;-82
2021/11/28 10:34:44;;;;;;;74.53;37.77;;;;;;;1.95;100.00;98887.72;5144333;57;1139016;-80
2021/11/28 10:39:59;;;;;;;58.30;32.33;;;;;;;1.96;100.00;98894.14;5143353;57;1139191;-77
2021/11/28 10:45:16;;;;;;;191.33;53.20;;;;;;;1.90;100.00;98891.94;5144843;57;1139366;-77
2021/11/28 10:50:28;;;;;;;111.07;45.23;;;;;;;1.89;100.00;98881.14;5144750;57;1141107;-76
2021/11/28 10:55:49;;;;;;;142.37;49.63;;;;;;;1.93;100.00;98883.08;5145093;57;1141155;-79
2021/11/28 11:01:00;;;;;;;85.57;40.07;;;;;;;1.96;100.00;98882.88;5152468;57;1138961;-78
2021/11/28 11:06:24;;;;;;;77.47;38.97;;;;;;;1.96;100.00;98888.92;5153905;57;1136455;-79
2021/11/28 11:11:34;;;;;;;77.23;37.63;;;;;;;1.94;100.00;98879.53;5209335;56;1136981;-77
2021/11/28 11:16:46;;;;;;;64.73;33.97;;;;;;;1.98;100.00;98867.50;5195872;56;1136980;-82
2021/11/28 11:22:07;;;;;;;64.30;34.13;;;;;;;2.02;100.00;98861.58;5153993;57;1137012;-80
2021/11/28 11:27:22;;;;;;;95.17;43.98;;;;;;;2.05;100.00;98849.17;5237801;56;1134808;-77
2021/11/28 11:32:49;;;;;;;97.20;40.83;;;;;;;2.07;100.00;98847.77;5167816;56;1139221;-78
2021/11/28 11:38:05;;;;;;;99.77;45.13;;;;;;;2.11;100.00;98842.70;5129153;56;1139158;-81
2021/11/28 11:43:11;;;;;;;69.27;35.83;;;;;;;2.13;100.00;98834.31;5115366;57;1139145;-88
2021/11/28 11:48:16;;;;;;;68.93;36.17;;;;;;;2.22;100.00;98833.66;5100416;57;1139054;-85
2021/11/28 11:53:30;;;;;;;76.53;39.57;;;;;;;2.25;100.00;98834.75;5076784;57;1138974;-82
2021/11/28 11:58:49;;;;;;;76.87;36.63;;;;;;;2.28;100.00;98850.66;5087779;57;1139202;-84
2021/11/28 12:03:56;;;;;;;72.23;36.50;;;;;;;2.34;100.00;98847.59;5052824;57;1139024;-85
2021/11/28 12:09:02;;;;;;;63.97;33.43;;;;;;;2.40;100.00;98845.41;5001606;58;1139113;-86
2021/11/28 12:14:08;;;;;;;69.27;34.20;;;;;;;2.44;100.00;98848.13;4963960;58;1139087;-83
2021/11/28 12:19:41;;;;;;;68.60;35.73;;;;;;;2.43;100.00;98845.66;5083543;57;1138825;-80
2021/11/28 12:24:46;;;;;;;70.57;34.63;;;;;;;2.39;100.00;98855.95;5042247;57;1139197;-84
2021/11/28 12:29:52;;;;;;;65.13;34.17;;;;;;;2.33;100.00;98853.75;4968796;58;1139353;-86
2021/11/28 12:35:01;;;;;;;80.30;38.10;;;;;;;2.38;100.00;98852.50;4968359;58;1138989;-83
2021/11/28 12:40:27;;;;;;;71.47;36.13;;;;;;;2.38;100.00;98847.28;4961500;59;1139274;-77
2021/11/28 12:45:37;;;;;;;84.47;41.73;;;;;;;2.35;100.00;98848.80;5009627;58;1139117;-78
2021/11/28 12:51:02;;;;;;;76.60;40.00;;;;;;;2.27;100.00;98843.30;5055241;58;1139235;-79
2021/11/28 12:56:15;;;;;;;72.57;36.87;;;;;;;2.26;100.00;98836.41;5066169;57;1136945;-79
2021/11/28 13:01:56;;;;;;;78.73;40.37;;;;;;;2.30;100.00;98837.84;5098600;57;1136925;-79
2021/11/28 13:07:37;;;;;;;86.97;42.10;;;;;;;2.33;100.00;98824.59;5001796;57;1137057;-79
2021/11/28 13:12:44;;;;;;;75.57;40.07;;;;;;;2.34;100.00;98818.44;5045886;58;21660;-78
2021/11/28 13:17:50;;;;;;;78.15;40.55;;;;;;;2.31;100.00;98813.89;5029150;58;1134826;-79
2021/11/28 13:23:02;;;;;;;66.87;35.67;;;;;;;2.30;100.00;98816.14;5049305;58;1139087;-82
2021/11/28 13:28:30;;;;;;;73.50;37.33;;;;;;;2.35;100.00;98814.05;5049105;58;1139066;-84
2021/11/28 13:33:40;;;;;;;109.40;57.73;;;;;;;2.39;100.00;98818.95;5044952;58;1139055;-82
2021/11/28 13:38:49;;;;;;;62.10;33.97;;;;;;;2.42;100.00;98821.81;5047905;58;1141173;-81
2021/11/28 13:44:08;;;;;;;66.90;35.87;;;;;;;2.36;100.00;98811.80;5023044;58;1139461;-82
2021/11/28 13:49:19;;;;;;;72.47;37.43;;;;;;;2.30;100.00;98803.09;5047083;57;1138966;-78
2021/11/28 13:54:42;;;;;;;88.27;42.97;;;;;;;2.30;100.00;98799.19;5104112;57;1139349;-75
2021/11/28 13:59:54;;;;;;;136.17;71.50;;;;;;;2.28;100.00;98807.15;5062577;57;1139056;-77
2021/11/28 14:05:03;;;;;;;158.97;77.35;;;;;;;2.22;100.00;98812.78;5019758;58;1141136;-74
2021/11/28 14:10:17;;;;;;;129.53;57.93;;;;;;;2.24;100.00;98821.81;4991458;58;1141074;-74
2021/11/28 14:15:31;;;;;;;159.82;74.42;;;;;;;2.25;100.00;98817.80;5036501;58;1141136;-75
2021/11/28 14:20:44;;;;;;;237.27;124.60;;;;;;;2.22;100.00;98821.91;4989965;57;1141212;-78
2021/11/28 14:25:51;;;;;;;201.43;113.73;;;;;;;2.21;100.00;98818.94;4991656;58;1143442;-78
2021/11/28 14:31:07;;;;;;;162.40;77.37;;;;;;;2.19;100.00;98826.04;4982497;58;1143221;-76
2021/11/28 14:36:28;;;;;;;129.73;61.00;;;;;;;2.23;100.00;98825.36;4985980;58;1141137;-80
2021/11/28 14:41:42;;;;;;;120.10;57.30;;;;;;;2.22;100.00;98824.52;4948715;57;1138998;-76
2021/11/28 14:46:49;;;;;;;139.00;63.10;;;;;;;2.19;100.00;98822.13;4940576;59;1139075;-76
2021/11/28 14:51:59;;;;;;;117.10;54.47;;;;;;;2.18;100.00;98824.84;4940672;58;1139283;-79
2021/11/28 14:57:23;;;;;;;96.57;47.70;;;;;;;2.18;100.00;98821.77;4919288;59;1139096;-77
2021/11/28 15:02:37;;;;;;;116.30;54.18;;;;;;;2.23;100.00;98816.23;4871044;59;1136987;-76
2021/11/28 15:07:42;;;;;;;214.70;88.20;;;;;;;2.18;100.00;98823.53;4870595;59;1139079;-78
2021/11/28 15:12:48;;;;;;;153.70;66.10;;;;;;;2.19;100.00;98829.95;4875933;59;1139076;-78
2021/11/28 15:17:54;;;;;;;144.20;63.70;;;;;;;2.22;100.00;98834.95;4915415;59;1139185;-79
2021/11/28 15:23:04;;;;;;;104.00;52.20;;;;;;;2.24;100.00;98830.47;4978009;58;1136978;-78
2021/11/28 15:28:10;;;;;;;114.90;53.07;;;;;;;2.27;100.00;98832.87;5017433;59;21092;-77
2021/11/28 15:33:15;;;;;;;121.83;57.33;;;;;;;2.29;100.00;98832.27;4989489;58;1137195;-75
2021/11/28 15:38:21;;;;;;;112.50;52.53;;;;;;;2.24;100.00;98826.56;4971502;59;1141270;-81
2021/11/28 15:43:26;;;;;;;136.73;61.37;;;;;;;2.24;100.00;98836.98;4946138;59;1141102;-79
2021/11/28 15:48:34;;;;;;;118.77;53.33;;;;;;;2.26;100.00;98840.33;5001953;59;1141361;-78
2021/11/28 15:53:40;;;;;;;110.67;53.63;;;;;;;2.32;100.00;98841.18;4952771;58;1141154;-81
2021/11/28 15:58:45;;;;;;;174.20;74.30;;;;;;;2.42;100.00;98832.25;5048308;57;1141375;-75
2021/11/28 16:03:55;;;;;;;122.33;56.17;;;;;;;2.43;100.00;98830.84;5175525;55;1141079;-78
2021/11/28 16:08:59;;;;;;;114.80;50.90;;;;;;;2.40;100.00;98830.22;5228136;56;1141171;-76
2021/11/28 16:14:05;;;;;;;108.83;52.00;;;;;;;2.36;100.00;98835.28;5038452;58;1141174;-89
2021/11/28 16:19:12;;;;;;;110.40;52.53;;;;;;;2.37;100.00;98840.87;5118726;57;1141198;-88
2021/11/28 16:24:18;;;;;;;120.10;58.73;;;;;;;2.32;100.00;98846.87;5089909;57;1141007;-85
2021/11/28 16:29:24;;;;;;;134.80;62.90;;;;;;;2.26;100.00;98837.72;5065832;57;1141129;-88
2021/11/28 16:34:29;;;;;;;123.23;57.97;;;;;;;2.23;100.00;98839.23;5045132;57;1141030;-84
2021/11/28 16:39:36;;;;;;;125.13;56.03;;;;;;;2.19;100.00;98844.77;5099428;57;1141120;-87
2021/11/28 16:44:41;;;;;;;145.53;64.83;;;;;;;2.16;100.00;98848.88;5110555;57;1141128;-86
2021/11/28 16:49:50;;;;;;;156.50;72.47;;;;;;;2.14;100.00;98849.48;5105750;57;1141165;-87
2021/11/28 16:54:55;;;;;;;144.03;69.33;;;;;;;2.12;100.00;98858.72;5083880;57;1141138;-85
2021/11/28 17:00:01;;;;;;;169.63;72.43;;;;;;;2.06;100.00;98851.31;5094500;57;1141137;-87
2021/11/28 17:05:07;;;;;;;153.67;71.57;;;;;;;2.02;100.00;98858.50;5101290;56;1141014;-87
2021/11/28 17:10:23;;;;;;;162.83;69.07;;;;;;;2.02;100.00;98859.80;5145714;56;1141083;-88
2021/11/28 17:15:29;;;;;;;328.37;101.18;;;;;;;2.07;100.00;98858.19;5071884;58;1141137;-86
2021/11/28 17:20:36;;;;;;;336.47;108.07;;;;;;;2.10;100.00;98857.98;5074876;58;1143143;-84
2021/11/28 17:25:42;;;;;;;232.67;88.03;;;;;;;2.01;100.00;98865.95;5077711;58;1143249;-87
2021/11/28 17:30:58;;;;;;;230.80;96.37;;;;;;;1.96;100.00;98862.02;5091782;57;1141028;-84
2021/11/28 17:36:04;;;;;;;142.40;61.87;;;;;;;1.95;100.00;98866.87;5150522;56;1141044;-90
2021/11/28 17:41:09;;;;;;;129.93;61.83;;;;;;;1.85;100.00;98848.86;5132511;56;1141261;-86
2021/11/28 17:46:16;;;;;;;150.50;64.07;;;;;;;1.76;100.00;98848.57;5047063;58;1141140;-90
2021/11/28 17:51:25;;;;;;;208.27;86.70;;;;;;;1.69;100.00;98840.79;5071865;57;1140966;-89
2021/11/28 17:56:30;;;;;;;185.13;73.40;;;;;;;1.64;100.00;98823.82;5130007;56;1141223;-90
2021/11/28 18:01:35;;;;;;;127.38;56.92;;;;;;;1.65;100.00;98826.80;5090195;56;1141082;-87
2021/11/28 18:06:41;;;;;;;114.90;52.97;;;;;;;1.68;100.00;98827.39;5038626;57;1141327;-87
2021/11/28 18:11:48;;;;;;;113.00;55.30;;;;;;;1.67;100.00;98831.44;5102197;57;1141084;-89
2021/11/28 18:16:53;;;;;;;112.67;53.90;;;;;;;1.65;100.00;98834.14;5134254;56;1141254;-92
2021/11/28 18:21:59;;;;;;;112.90;55.50;;;;;;;1.63;100.00;98829.50;5163548;56;1141448;-87
2021/11/28 18:27:05;;;;;;;175.63;74.70;;;;;;;1.67;100.00;98824.92;5127430;56;1141190;-89
2021/11/28 18:32:11;;;;;;;134.83;63.20;;;;;;;1.74;100.00;98819.64;5098248;58;1138990;-88
2021/11/28 18:37:17;;;;;;;148.40;65.23;;;;;;;1.74;100.00;98813.95;5094995;58;1138957;-89
2021/11/28 18:42:28;;;;;;;120.73;56.93;;;;;;;1.75;100.00;98818.23;5095269;58;1138985;-86
2021/11/28 18:47:34;;;;;;;111.27;50.43;;;;;;;1.76;100.00;98825.11;5039857;58;1138982;-86
2021/11/28 18:52:42;;;;;;;92.63;47.33;;;;;;;1.75;100.00;98816.93;5087913;57;1138961;-86
2021/11/28 18:57:53;;;;;;;134.77;65.00;;;;;;;1.72;100.00;98808.02;5088355;57;1136954;-90
2021/11/28 19:03:00;;;;;;;129.03;59.37;;;;;;;1.70;100.00;98817.70;5091272;57;1139025;-87
2021/11/28 19:08:06;;;;;;;120.13;54.03;;;;;;;1.67;100.00;98821.02;5075429;58;1139099;-88
2021/11/28 19:13:13;;;;;;;101.83;48.47;;;;;;;1.67;100.00;98823.62;4932467;59;1139087;-88
2021/11/28 19:18:19;;;;;;;115.23;55.23;;;;;;;1.71;100.00;98812.86;4824955;60;1138979;-87
2021/11/28 19:23:25;;;;;;;137.63;67.53;;;;;;;1.66;100.00;98816.27;4874395;59;1138905;-89
2021/11/28 19:28:32;;;;;;;117.00;58.50;;;;;;;1.63;100.00;98826.06;4894453;60;1139016;-89
2021/11/28 19:33:37;;;;;;;104.73;52.33;;;;;;;1.58;100.00;98834.17;4775052;60;1139186;-88
2021/11/28 19:38:45;;;;;;;98.17;46.70;;;;;;;1.50;100.00;98825.23;4804106;61;1139028;-91
2021/11/28 19:43:51;;;;;;;104.60;50.23;;;;;;;1.54;100.00;98826.20;4802526;59;1136989;-88
2021/11/28 19:48:57;;;;;;;93.30;45.17;;;;;;;1.48;100.00;98824.03;4842875;59;1137162;-87
2021/11/28 19:54:04;;;;;;;72.10;36.25;;;;;;;1.45;100.00;98824.69;4828948;60;1134836;-87
2021/11/28 19:59:10;;;;;;;85.03;41.23;;;;;;;1.40;100.00;98810.20;4815426;59;1138933;-85
2021/11/28 20:04:17;;;;;;;86.13;41.43;;;;;;;1.38;100.00;98814.67;4887287;59;1139039;-85
2021/11/28 20:09:23;;;;;;;80.27;38.80;;;;;;;1.44;100.00;98817.81;4993162;59;1138990;-84
2021/11/28 20:14:28;;;;;;;85.50;42.80;;;;;;;1.46;100.00;98811.56;4964344;59;1138982;-87
2021/11/28 20:19:34;;;;;;;86.47;39.03;;;;;;;1.43;100.00;98810.94;5012879;59;1139046;-86
2021/11/28 20:24:40;;;;;;;84.93;39.20;;;;;;;1.42;100.00;98827.03;4992722;59;1139070;-84
2021/11/28 20:29:46;;;;;;;92.23;41.93;;;;;;;1.43;100.00;98820.05;4948336;59;1139055;-84
2021/11/28 20:34:51;;;;;;;87.08;40.83;;;;;;;1.43;100.00;98819.58;4985633;58;1138955;-85
2021/11/28 20:39:58;;;;;;;80.87;38.27;;;;;;;1.48;100.00;98820.59;4966538;58;1138996;-84
2021/11/28 20:45:06;;;;;;;94.43;42.67;;;;;;;1.45;100.00;98816.88;5002469;57;1139036;-84
2021/11/28 20:50:13;;;;;;;100.30;45.67;;;;;;;1.38;100.00;98821.19;5083542;57;1139117;-85
2021/11/28 20:55:20;;;;;;;99.10;45.97;;;;;;;1.38;100.00;98810.77;5083269;57;1140985;-84
2021/11/28 21:00:29;;;;;;;92.47;42.35;;;;;;;1.40;100.00;98811.50;5024912;58;1139065;-84
2021/11/28 21:05:35;;;;;;;99.77;43.73;;;;;;;1.37;100.00;98814.34;4921484;59;1139024;-84
2021/11/28 21:10:40;;;;;;;100.53;42.93;;;;;;;1.33;100.00;98816.77;4871506;60;1139242;-84
2021/11/28 21:15:49;;;;;;;77.37;36.83;;;;;;;1.32;100.00;98814.27;4897776;59;1141247;-83
2021/11/28 21:20:55;;;;;;;104.60;46.40;;;;;;;1.28;100.00;98808.42;4970804;59;1139204;-83
2021/11/28 21:26:00;;;;;;;91.97;41.37;;;;;;;1.22;100.00;98807.52;4970399;58;1141165;-83
2021/11/28 21:31:07;;;;;;;83.17;38.00;;;;;;;1.16;100.00;98807.11;4969599;58;1139016;-83
2021/11/28 21:36:13;;;;;;;89.40;50.20;;;;;;;1.11;100.00;98794.86;4969517;58;1138955;-84
2021/11/28 21:41:19;;;;;;;67.40;32.58;;;;;;;1.10;100.00;98784.91;4969675;58;1139074;-84
2021/11/28 21:46:24;;;;;;;66.47;35.10;;;;;;;1.07;100.00;98782.50;4969158;58;1139073;-85
2021/11/28 21:51:30;;;;;;;82.73;41.27;;;;;;;1.01;100.00;98788.97;4969501;58;1138998;-84
2021/11/28 21:56:38;;;;;;;82.97;44.50;;;;;;;1.06;100.00;98792.58;4970116;59;1139062;-84
2021/11/28 22:01:43;;;;;;;66.03;34.60;;;;;;;1.14;100.00;98792.89;4967244;58;1139156;-84
2021/11/28 22:06:49;;;;;;;91.47;55.97;;;;;;;1.21;100.00;98786.82;4957601;58;1139207;-84
2021/11/28 22:11:55;;;;;;;164.67;94.93;;;;;;;1.19;100.00;98797.80;4956715;58;1139233;-84
2021/11/28 22:17:00;;;;;;;78.93;43.17;;;;;;;1.16;100.00;98794.09;4932753;58;1141177;-84
2021/11/28 22:22:07;;;;;;;72.60;38.53;;;;;;;1.13;100.00;98793.83;4879322;60;1139039;-84
2021/11/28 22:27:14;;;;;;;87.30;44.80;;;;;;;1.12;100.00;98796.53;4879660;60;1139011;-84
2021/11/28 22:32:20;;;;;;;98.80;55.60;;;;;;;1.09;100.00;98801.47;4879736;59;1139398;-84
2021/11/28 22:37:26;;;;;;;87.60;43.40;;;;;;;1.09;100.00;98809.27;4881042;59;1139092;-85
2021/11/28 22:42:31;;;;;;;100.97;52.63;;;;;;;1.08;100.00;98809.38;4880528;59;1139186;-83
2021/11/28 22:47:37;;;;;;;70.03;38.67;;;;;;;1.07;100.00;98801.23;4880937;59;1141466;-84
2021/11/28 22:52:43;;;;;;;68.33;36.30;;;;;;;1.04;100.00;98800.48;4880175;59;1139068;-83
2021/11/28 22:57:50;;;;;;;76.67;41.00;;;;;;;1.03;100.00;98800.59;4880420;60;1139066;-84
2021/11/28 23:02:59;;;;;;;64.43;35.03;;;;;;;1.01;100.00;98798.08;4880400;59;1138961;-84
2021/11/28 23:08:06;;;;;;;59.90;31.43;;;;;;;1.11;100.00;98796.16;4880586;59;1136921;-84